Koryo Maru No.15 — JFDD — position and weather

sailwx.info

Track history (hours):
 
Tides and Currents Weather Stations Pressure Air Temp Water Temp Dewpoint Dewpoint Depression Visibility Wind Speed Wind Dir Waves Ship Positions

Koryo Maru No.15

Last reported at 2017-Sep-24 22:05 UTC. Time now 2017-Dec-14 06:30 UTC.
Position N 34°26' W 015°07'.
Warning: this ship's position is months out of date.

Length 60 m; draft 4 m.

Type: Fishing. MMSI: 431927000.

Date/timePositionNaut miles runAvg speedWind from/ knotsBaromVisibWave heightAir tempDewpointWater temp
2017-Sep-24 22:05N 34°26' W 015°07'112.2
2017-Sep-24 21:58N 34°25' W 015°07'512.1
2017-Sep-24 21:30N 34°19' W 015°06'611.9
2017-Sep-24 21:00N 34°13' W 015°06'611.9
2017-Sep-24 20:30N 34°07' W 015°05'612.1
2017-Sep-24 20:00N 34°01' W 015°05'612.2
2017-Sep-24 19:30N 33°55' W 015°04'2611.7
2017-Sep-24 17:19N 33°30' W 015°03'411.5
2017-Sep-24 16:59N 33°26' W 015°03'611.5
2017-Sep-24 16:28N 33°20' W 015°02'511.5
2017-Sep-24 16:00N 33°15' W 015°02'611.4
2017-Sep-24 15:30N 33°09' W 015°01'611.4
2017-Sep-24 15:00N 33°03' W 015°00'611.5
2017-Sep-24 14:30N 32°58' W 014°60'611.4
2017-Sep-24 13:59N 32°52' W 014°59'511.4
2017-Sep-24 13:30N 32°46' W 014°59'611.4
2017-Sep-24 13:00N 32°41' W 014°58'611.3
2017-Sep-24 12:29N 32°35' W 014°57'611.1
2017-Sep-24 11:59N 32°29' W 014°57'511.1
2017-Sep-24 11:30N 32°24' W 014°57'611.1
2017-Sep-24 11:00N 32°18' W 014°57'511.0
2017-Sep-24 10:30N 32°13' W 014°57'610.9
2017-Sep-24 10:00N 32°07' W 014°57'1011.2
2017-Sep-24 09:08N 31°58' W 014°56'211.1
2017-Sep-24 08:59N 31°56' W 014°56'610.9
2017-Sep-24 08:29N 31°50' W 014°56'610.7
2017-Sep-24 07:57N 31°45' W 014°56'710.4
2017-Sep-24 07:18N 31°38' W 014°56'510.4
2017-Sep-24 06:52N 31°34' W 014°56'4910.3
2017-Sep-24 02:06N 30°45' W 014°59'110.0
2017-Sep-24 02:00N 30°43' W 014°59'5 9.8
2017-Sep-24 01:30N 30°39' W 014°59'5 9.8
2017-Sep-24 00:59N 30°33' W 014°60'710.0
2017-Sep-24 00:20N 30°27' W 015°00'610.3
2017-Sep-23 23:44N 30°21' W 015°00'2 9.8
2017-Sep-23 23:30N 30°19' W 015°01'5 9.8
2017-Sep-23 22:59N 30°13' W 015°01'5 9.6
2017-Sep-23 22:28N 30°09' W 015°02'5 9.6
2017-Sep-23 21:54N 30°03' W 015°02'4 9.6
2017-Sep-23 21:27N 29°59' W 015°03'4 9.6
2017-Sep-23 21:00N 29°55' W 015°03'5 9.6
2017-Sep-23 20:29N 29°50' W 015°04'5 9.7
2017-Sep-23 20:00N 29°45' W 015°04'97 2.3
2017-Sep-22 02:00N 28°09' W 015°24'0 0.0
2017-Sep-22 01:30N 28°09' W 015°24'0 0.0
2017-Sep-22 01:00N 28°09' W 015°24'0 0.0
2017-Sep-22 00:30N 28°09' W 015°24'0 0.0
2017-Sep-22 00:00N 28°09' W 015°24'0 0.0
2017-Sep-21 23:30N 28°09' W 015°24'0 0.0
2017-Sep-21 23:00N 28°09' W 015°24'0 0.0
2017-Sep-21 22:30N 28°09' W 015°24'0 0.0
2017-Sep-21 22:00N 28°09' W 015°24'0 0.0
2017-Sep-21 21:30N 28°09' W 015°24'0 0.0
2017-Sep-21 21:00N 28°09' W 015°24'0 0.0
2017-Sep-21 20:30N 28°09' W 015°24'0 0.0
2017-Sep-21 20:00N 28°09' W 015°24'0 0.0
2017-Sep-21 19:30N 28°09' W 015°24'0 0.0
2017-Sep-21 19:00N 28°09' W 015°24'0 0.0
2017-Sep-21 18:30N 28°09' W 015°24'0 0.0
2017-Sep-21 18:00N 28°09' W 015°24'0 0.0
2017-Sep-21 17:30N 28°09' W 015°24'0 0.0
2017-Sep-21 17:00N 28°09' W 015°24'0 0.0
2017-Sep-21 16:30N 28°09' W 015°24'0 0.0
2017-Sep-21 16:00N 28°09' W 015°24'0 0.0
2017-Sep-21 15:30N 28°09' W 015°24'0 0.0
2017-Sep-21 15:00N 28°09' W 015°24'0 0.0
2017-Sep-21 14:30N 28°09' W 015°24'0 0.0
2017-Sep-21 14:00N 28°09' W 015°24'0 0.0
2017-Sep-21 13:30N 28°09' W 015°24'0 0.0
2017-Sep-21 13:00N 28°09' W 015°24'0 0.0
2017-Sep-21 12:30N 28°09' W 015°24'0 0.0
2017-Sep-21 12:00N 28°09' W 015°24'0 0.0
2017-Sep-21 11:30N 28°09' W 015°24'0 0.0
2017-Sep-21 11:00N 28°09' W 015°24'0 0.0
2017-Sep-21 10:30N 28°09' W 015°24'0 0.0
2017-Sep-21 10:00N 28°09' W 015°24'0 0.0
2017-Sep-21 09:30N 28°09' W 015°24'0 0.0
2017-Sep-21 09:00N 28°09' W 015°24'0 0.0
2017-Sep-21 08:30N 28°09' W 015°24'0 0.0
2017-Sep-21 08:00N 28°09' W 015°24'0 0.0
2017-Sep-21 07:30N 28°09' W 015°24'0 0.0
2017-Sep-21 07:00N 28°09' W 015°24'0 0.0
2017-Sep-21 06:30N 28°09' W 015°24'0 0.0
2017-Sep-21 06:00N 28°09' W 015°24'0 0.0
2017-Sep-21 05:30N 28°09' W 015°24'0 0.0
2017-Sep-21 05:00N 28°09' W 015°24'0 0.0
2017-Sep-21 04:30N 28°09' W 015°24'0 0.0
2017-Sep-21 04:00N 28°09' W 015°24'0 0.0
2017-Sep-21 03:30N 28°09' W 015°24'0 0.0
2017-Sep-21 03:00N 28°09' W 015°24'0 0.0
2017-Sep-21 02:30N 28°09' W 015°24'0 0.0
2017-Sep-21 02:00N 28°09' W 015°24'0 0.0
2017-Sep-21 01:30N 28°09' W 015°24'0 0.0
2017-Sep-21 01:00N 28°09' W 015°24'0 0.0
2017-Sep-21 00:30N 28°09' W 015°24'0 0.0
2017-Sep-21 00:00N 28°09' W 015°24'0 0.0
2017-Sep-20 23:30N 28°09' W 015°24'0 0.0
2017-Sep-20 23:00N 28°09' W 015°24'0 0.0
2017-Sep-20 22:30N 28°09' W 015°24'0 0.0
2017-Sep-20 22:00N 28°09' W 015°24'0 0.0
2017-Sep-20 21:30N 28°09' W 015°24'0 0.0
2017-Sep-20 21:00N 28°09' W 015°24'0 0.0
2017-Sep-20 20:30N 28°09' W 015°24'0 0.0
2017-Sep-20 20:00N 28°09' W 015°24'0 0.0
2017-Sep-20 19:30N 28°09' W 015°24'0 0.0
2017-Sep-20 19:00N 28°09' W 015°24'0 0.0
2017-Sep-20 18:30N 28°09' W 015°24'0 0.0
2017-Sep-20 18:00N 28°09' W 015°24'0 0.0
2017-Sep-20 17:30N 28°09' W 015°24'0 0.0
2017-Sep-20 17:00N 28°09' W 015°24'0 0.0
2017-Sep-20 16:30N 28°09' W 015°24'0 0.0
2017-Sep-20 16:00N 28°09' W 015°24'0 0.0
2017-Sep-20 15:30N 28°09' W 015°24'0 0.0
2017-Sep-20 15:00N 28°09' W 015°24'0 0.0
2017-Sep-20 14:00N 28°09' W 015°24'0 0.0
2017-Sep-20 13:30N 28°09' W 015°24'0 0.0
2017-Sep-20 13:00N 28°09' W 015°24'0 0.0
2017-Sep-20 12:30N 28°09' W 015°24'0 0.0
2017-Sep-20 12:00N 28°09' W 015°24'0 0.0
2017-Sep-20 11:30N 28°09' W 015°24'0 0.0
2017-Sep-20 11:00N 28°09' W 015°24'0 0.0
2017-Sep-20 10:30N 28°09' W 015°24'0 0.0
2017-Sep-20 10:00N 28°09' W 015°24'0 0.0
2017-Sep-20 09:30N 28°09' W 015°24'0 0.0
2017-Sep-20 09:00N 28°09' W 015°24'0 0.0
2017-Sep-20 08:30N 28°09' W 015°24'0 0.0
2017-Sep-20 08:00N 28°09' W 015°24'0 0.0
2017-Sep-20 07:30N 28°09' W 015°24'0 0.0
2017-Sep-20 07:00N 28°09' W 015°24'0 0.0
2017-Sep-20 06:30N 28°09' W 015°24'0 0.0
2017-Sep-20 06:00N 28°09' W 015°24'0 0.0
2017-Sep-20 05:30N 28°09' W 015°24'0 0.0
2017-Sep-20 05:00N 28°09' W 015°24'0 0.0
2017-Sep-20 04:30N 28°09' W 015°24'0 0.0
2017-Sep-20 04:00N 28°09' W 015°24'0 0.0
2017-Sep-20 03:30N 28°09' W 015°24'0 0.0
2017-Sep-20 03:00N 28°09' W 015°24'0 0.0
2017-Sep-20 02:30N 28°09' W 015°24'0 0.0
2017-Sep-20 02:00N 28°09' W 015°24'0 0.0
2017-Sep-20 01:30N 28°09' W 015°24'0 0.0
2017-Sep-20 01:00N 28°09' W 015°24'0 0.0
2017-Sep-20 00:30N 28°09' W 015°24'0 0.0
2017-Sep-20 00:00N 28°09' W 015°24'0 0.0
2017-Sep-19 23:30N 28°09' W 015°24'0 0.0
2017-Sep-19 23:00N 28°09' W 015°24'0 0.0
2017-Sep-19 22:30N 28°09' W 015°24'0 0.0
2017-Sep-19 22:00N 28°09' W 015°24'0 0.0
2017-Sep-19 21:30N 28°09' W 015°24'0 0.0
2017-Sep-19 21:00N 28°09' W 015°24'0 0.0
2017-Sep-19 20:30N 28°09' W 015°24'0 0.0
2017-Sep-19 20:00N 28°09' W 015°24'0 0.0
2017-Sep-19 19:30N 28°09' W 015°24'0 0.0
2017-Sep-19 19:00N 28°09' W 015°24'0 0.0
2017-Sep-19 18:30N 28°09' W 015°24'0 0.0
2017-Sep-19 18:00N 28°09' W 015°24'0 0.0
2017-Sep-19 17:30N 28°09' W 015°24'0 0.0
2017-Sep-19 17:00N 28°09' W 015°24'0 0.0
2017-Sep-19 16:30N 28°09' W 015°24'0 0.0
2017-Sep-19 16:00N 28°09' W 015°24'0 0.0
2017-Sep-19 15:30N 28°09' W 015°24'0 0.0
2017-Sep-19 15:00N 28°09' W 015°24'0 0.0
2017-Sep-19 14:30N 28°09' W 015°24'0 0.0
2017-Sep-19 14:00N 28°09' W 015°24'0 0.0
2017-Sep-19 13:30N 28°09' W 015°24'0 0.0
2017-Sep-19 13:00N 28°09' W 015°24'0 0.0
2017-Sep-19 12:30N 28°09' W 015°24'0 0.0
2017-Sep-19 12:00N 28°09' W 015°24'0 0.0
2017-Sep-19 11:30N 28°09' W 015°24'0 0.0
2017-Sep-19 11:00N 28°09' W 015°24'0 0.0
2017-Sep-19 10:30N 28°09' W 015°24'0 0.0
2017-Sep-19 10:00N 28°09' W 015°24'0 0.0
2017-Sep-19 09:30N 28°09' W 015°24'0 0.0
2017-Sep-19 09:00N 28°09' W 015°24'0 0.0
2017-Sep-19 08:30N 28°09' W 015°24'0 0.0
2017-Sep-19 08:00N 28°09' W 015°24'0 0.0
2017-Sep-19 07:30N 28°09' W 015°24'0 0.0
2017-Sep-19 07:00N 28°09' W 015°24'0 0.0
2017-Sep-19 06:30N 28°09' W 015°24'0 0.0
2017-Sep-19 06:00N 28°09' W 015°24'0 0.0
2017-Sep-19 05:30N 28°09' W 015°24'0 0.0
2017-Sep-19 05:00N 28°09' W 015°24'0 0.0
2017-Sep-19 04:30N 28°09' W 015°24'0 0.0
2017-Sep-19 04:00N 28°09' W 015°24'0 0.0
2017-Sep-19 03:30N 28°09' W 015°24'0 0.0
2017-Sep-19 03:00N 28°09' W 015°24'0 0.0
2017-Sep-19 02:30N 28°09' W 015°24'0 0.0
2017-Sep-19 02:00N 28°09' W 015°24'0 0.0
2017-Sep-19 01:30N 28°09' W 015°24'0 0.0
2017-Sep-19 01:00N 28°09' W 015°24'0 0.0
2017-Sep-19 00:30N 28°09' W 015°24'0 0.0
2017-Sep-19 00:00N 28°09' W 015°24'0 0.0
2017-Sep-18 23:30N 28°09' W 015°24'0 0.0
2017-Sep-18 23:00N 28°09' W 015°24'0 0.0
2017-Sep-18 22:30N 28°09' W 015°24'0 0.0
2017-Sep-18 22:00N 28°09' W 015°24'0 0.0
2017-Sep-18 21:30N 28°09' W 015°24'0 0.0
2017-Sep-18 21:00N 28°09' W 015°24'0 0.0
2017-Sep-18 20:30N 28°09' W 015°24'0 0.0
2017-Sep-18 20:00N 28°09' W 015°24'0 0.0
2017-Sep-18 19:30N 28°09' W 015°24'0 0.0
2017-Sep-18 19:00N 28°09' W 015°24'0 0.0
2017-Sep-18 18:30N 28°09' W 015°24'0 0.0
2017-Sep-18 18:00N 28°09' W 015°24'0 0.0
2017-Sep-18 17:30N 28°09' W 015°24'0 0.0
2017-Sep-18 17:00N 28°09' W 015°24'0 0.0
2017-Sep-18 16:30N 28°09' W 015°24'0 0.0
2017-Sep-18 16:00N 28°09' W 015°24'0 0.0
2017-Sep-18 15:30N 28°09' W 015°24'0 0.0
2017-Sep-18 15:00N 28°09' W 015°24'0 0.0
2017-Sep-18 14:30N 28°09' W 015°24'0 0.0
2017-Sep-18 14:00N 28°09' W 015°24'0 0.0
2017-Sep-18 13:30N 28°09' W 015°24'0 0.0
2017-Sep-18 13:00N 28°09' W 015°24'0 0.0
2017-Sep-18 12:30N 28°09' W 015°24'0 0.0
2017-Sep-18 12:00N 28°09' W 015°24'0 0.0
2017-Sep-18 11:30N 28°09' W 015°24'0 0.0
2017-Sep-18 11:00N 28°09' W 015°24'0 0.0
2017-Sep-18 10:30N 28°09' W 015°24'0 0.0
2017-Sep-18 10:00N 28°09' W 015°24'0 0.0
2017-Sep-18 09:30N 28°09' W 015°24'0 0.0
2017-Sep-18 09:00N 28°09' W 015°24'0 0.0
2017-Sep-18 08:30N 28°09' W 015°24'0 0.0
2017-Sep-18 08:00N 28°09' W 015°24'0 0.0
2017-Sep-18 07:30N 28°09' W 015°24'0 0.0
2017-Sep-18 07:00N 28°09' W 015°24'0 0.0
2017-Sep-18 06:30N 28°09' W 015°24'0 0.0
2017-Sep-18 06:00N 28°09' W 015°24'0 0.0
2017-Sep-18 05:30N 28°09' W 015°24'0 0.0
2017-Sep-18 05:00N 28°09' W 015°24'0 0.0
2017-Sep-18 04:30N 28°09' W 015°24'0 0.0
2017-Sep-18 04:00N 28°09' W 015°24'0 0.0
2017-Sep-18 03:30N 28°09' W 015°24'0 0.0
2017-Sep-18 03:00N 28°09' W 015°24'0 0.0
2017-Sep-18 02:30N 28°09' W 015°24'0 0.0
2017-Sep-18 02:00N 28°09' W 015°24'0 0.0
2017-Sep-18 01:30N 28°09' W 015°24'0 0.0
2017-Sep-18 01:00N 28°09' W 015°24'0 0.0
2017-Sep-18 00:30N 28°09' W 015°24'0 0.0
2017-Sep-18 00:00N 28°09' W 015°24'0 0.0
2017-Sep-17 23:30N 28°09' W 015°24'0 0.0
2017-Sep-17 23:00N 28°09' W 015°24'0 0.0
2017-Sep-17 22:30N 28°09' W 015°24'0 0.0
2017-Sep-17 22:00N 28°09' W 015°24'0 0.0
2017-Sep-17 21:30N 28°09' W 015°24'0 0.0
2017-Sep-17 21:00N 28°09' W 015°24'0 0.0
2017-Sep-17 20:30N 28°09' W 015°24'0 0.0
2017-Sep-17 20:00N 28°09' W 015°24'0 0.0
2017-Sep-17 19:30N 28°09' W 015°24'0 0.0
2017-Sep-17 19:00N 28°09' W 015°24'0 0.0
2017-Sep-17 18:30N 28°09' W 015°24'0 0.0
2017-Sep-17 18:00N 28°09' W 015°24'0 0.0
2017-Sep-17 17:30N 28°09' W 015°24'0 0.0
2017-Sep-17 17:00N 28°09' W 015°24'0 0.0
2017-Sep-17 16:30N 28°09' W 015°24'0 0.0
2017-Sep-17 16:00N 28°09' W 015°24'0 0.0
2017-Sep-17 15:30N 28°09' W 015°24'0 0.0
2017-Sep-17 15:00N 28°09' W 015°24'0 0.0
2017-Sep-17 14:30N 28°09' W 015°24'0 0.0
2017-Sep-17 14:00N 28°09' W 015°24'0 0.0
2017-Sep-17 13:30N 28°09' W 015°24'0 0.0
2017-Sep-17 13:00N 28°09' W 015°24'0 0.0
2017-Sep-17 12:30N 28°09' W 015°24'0 0.0
2017-Sep-17 12:00N 28°09' W 015°24'0 0.0
2017-Sep-17 11:30N 28°09' W 015°24'0 0.0
2017-Sep-17 11:00N 28°09' W 015°24'0 0.0
2017-Sep-17 10:30N 28°09' W 015°24'0 0.0
2017-Sep-17 10:00N 28°09' W 015°24'1 2.2
2017-Sep-17 09:30N 28°08' W 015°25'3 5.6
2017-Sep-17 09:00N 28°06' W 015°22'4 8.5
2017-Sep-17 08:30N 28°05' W 015°18'2 4.6
2017-Sep-17 08:00N 28°04' W 015°15'0 1.0
2017-Sep-17 07:30N 28°04' W 015°15'0 0.9
2017-Sep-17 07:00N 28°05' W 015°15'0 0.7
2017-Sep-17 06:30N 28°05' W 015°15'2 3.8
2017-Sep-17 06:00N 28°03' W 015°15'2 4.7
2017-Sep-17 05:30N 28°00' W 015°15'2 4.7
2017-Sep-17 05:00N 27°58' W 015°15'2 4.6
2017-Sep-17 04:30N 27°56' W 015°16'2 4.5
2017-Sep-17 04:00N 27°53' W 015°16'3 5.6
2017-Sep-17 03:30N 27°51' W 015°16'3 5.6
2017-Sep-17 03:00N 27°48' W 015°15'3 5.4
2017-Sep-17 02:30N 27°45' W 015°15'3 5.4
2017-Sep-17 02:00N 27°42' W 015°15'3 5.0
2017-Sep-17 01:30N 27°40' W 015°15'9 6.1
2017-Sep-16 23:58N 27°32' W 015°21'4 7.1
2017-Sep-16 23:28N 27°30' W 015°24'  
Track history (hours):
 
Tides and Currents Weather Stations Pressure Air Temp Water Temp Dewpoint Dewpoint Depression Visibility Wind Speed Wind Dir Waves Ship Positions

Koryo Maru No.15

Last reported at 2017-Sep-24 22:05 UTC. Time now 2017-Dec-14 06:30 UTC.
Position N 34°26' W 015°07'.
Warning: this ship's position is months out of date.

Length 60 m; draft 4 m.

Type: Fishing. MMSI: 431927000.

Date/timePositionNaut miles runAvg speedWind from/ knotsBaromVisibWave heightAir tempDewpointWater temp
2017-Sep-24 22:05N 34°26' W 015°07'112.2
2017-Sep-24 21:58N 34°25' W 015°07'512.1
2017-Sep-24 21:30N 34°19' W 015°06'611.9
2017-Sep-24 21:00N 34°13' W 015°06'611.9
2017-Sep-24 20:30N 34°07' W 015°05'612.1
2017-Sep-24 20:00N 34°01' W 015°05'612.2
2017-Sep-24 19:30N 33°55' W 015°04'2611.7
2017-Sep-24 17:19N 33°30' W 015°03'411.5
2017-Sep-24 16:59N 33°26' W 015°03'611.5
2017-Sep-24 16:28N 33°20' W 015°02'511.5
2017-Sep-24 16:00N 33°15' W 015°02'611.4
2017-Sep-24 15:30N 33°09' W 015°01'611.4
2017-Sep-24 15:00N 33°03' W 015°00'611.5
2017-Sep-24 14:30N 32°58' W 014°60'611.4
2017-Sep-24 13:59N 32°52' W 014°59'511.4
2017-Sep-24 13:30N 32°46' W 014°59'611.4
2017-Sep-24 13:00N 32°41' W 014°58'611.3
2017-Sep-24 12:29N 32°35' W 014°57'611.1
2017-Sep-24 11:59N 32°29' W 014°57'511.1
2017-Sep-24 11:30N 32°24' W 014°57'611.1
2017-Sep-24 11:00N 32°18' W 014°57'511.0
2017-Sep-24 10:30N 32°13' W 014°57'610.9
2017-Sep-24 10:00N 32°07' W 014°57'1011.2
2017-Sep-24 09:08N 31°58' W 014°56'211.1
2017-Sep-24 08:59N 31°56' W 014°56'610.9
2017-Sep-24 08:29N 31°50' W 014°56'610.7
2017-Sep-24 07:57N 31°45' W 014°56'710.4
2017-Sep-24 07:18N 31°38' W 014°56'510.4
2017-Sep-24 06:52N 31°34' W 014°56'4910.3
2017-Sep-24 02:06N 30°45' W 014°59'110.0
2017-Sep-24 02:00N 30°43' W 014°59'5 9.8
2017-Sep-24 01:30N 30°39' W 014°59'5 9.8
2017-Sep-24 00:59N 30°33' W 014°60'710.0
2017-Sep-24 00:20N 30°27' W 015°00'610.3
2017-Sep-23 23:44N 30°21' W 015°00'2 9.8
2017-Sep-23 23:30N 30°19' W 015°01'5 9.8
2017-Sep-23 22:59N 30°13' W 015°01'5 9.6
2017-Sep-23 22:28N 30°09' W 015°02'5 9.6
2017-Sep-23 21:54N 30°03' W 015°02'4 9.6
2017-Sep-23 21:27N 29°59' W 015°03'4 9.6
2017-Sep-23 21:00N 29°55' W 015°03'5 9.6
2017-Sep-23 20:29N 29°50' W 015°04'5 9.7
2017-Sep-23 20:00N 29°45' W 015°04'97 2.3
2017-Sep-22 02:00N 28°09' W 015°24'0 0.0
2017-Sep-22 01:30N 28°09' W 015°24'0 0.0
2017-Sep-22 01:00N 28°09' W 015°24'0 0.0
2017-Sep-22 00:30N 28°09' W 015°24'0 0.0
2017-Sep-22 00:00N 28°09' W 015°24'0 0.0
2017-Sep-21 23:30N 28°09' W 015°24'0 0.0
2017-Sep-21 23:00N 28°09' W 015°24'0 0.0
2017-Sep-21 22:30N 28°09' W 015°24'0 0.0
2017-Sep-21 22:00N 28°09' W 015°24'0 0.0
2017-Sep-21 21:30N 28°09' W 015°24'0 0.0
2017-Sep-21 21:00N 28°09' W 015°24'0 0.0
2017-Sep-21 20:30N 28°09' W 015°24'0 0.0
2017-Sep-21 20:00N 28°09' W 015°24'0 0.0
2017-Sep-21 19:30N 28°09' W 015°24'0 0.0
2017-Sep-21 19:00N 28°09' W 015°24'0 0.0
2017-Sep-21 18:30N 28°09' W 015°24'0 0.0
2017-Sep-21 18:00N 28°09' W 015°24'0 0.0
2017-Sep-21 17:30N 28°09' W 015°24'0 0.0
2017-Sep-21 17:00N 28°09' W 015°24'0 0.0
2017-Sep-21 16:30N 28°09' W 015°24'0 0.0
2017-Sep-21 16:00N 28°09' W 015°24'0 0.0
2017-Sep-21 15:30N 28°09' W 015°24'0 0.0
2017-Sep-21 15:00N 28°09' W 015°24'0 0.0
2017-Sep-21 14:30N 28°09' W 015°24'0 0.0
2017-Sep-21 14:00N 28°09' W 015°24'0 0.0
2017-Sep-21 13:30N 28°09' W 015°24'0 0.0
2017-Sep-21 13:00N 28°09' W 015°24'0 0.0
2017-Sep-21 12:30N 28°09' W 015°24'0 0.0
2017-Sep-21 12:00N 28°09' W 015°24'0 0.0
2017-Sep-21 11:30N 28°09' W 015°24'0 0.0
2017-Sep-21 11:00N 28°09' W 015°24'0 0.0
2017-Sep-21 10:30N 28°09' W 015°24'0 0.0
2017-Sep-21 10:00N 28°09' W 015°24'0 0.0
2017-Sep-21 09:30N 28°09' W 015°24'0 0.0
2017-Sep-21 09:00N 28°09' W 015°24'0 0.0
2017-Sep-21 08:30N 28°09' W 015°24'0 0.0
2017-Sep-21 08:00N 28°09' W 015°24'0 0.0
2017-Sep-21 07:30N 28°09' W 015°24'0 0.0
2017-Sep-21 07:00N 28°09' W 015°24'0 0.0
2017-Sep-21 06:30N 28°09' W 015°24'0 0.0
2017-Sep-21 06:00N 28°09' W 015°24'0 0.0
2017-Sep-21 05:30N 28°09' W 015°24'0 0.0
2017-Sep-21 05:00N 28°09' W 015°24'0 0.0
2017-Sep-21 04:30N 28°09' W 015°24'0 0.0
2017-Sep-21 04:00N 28°09' W 015°24'0 0.0
2017-Sep-21 03:30N 28°09' W 015°24'0 0.0
2017-Sep-21 03:00N 28°09' W 015°24'0 0.0
2017-Sep-21 02:30N 28°09' W 015°24'0 0.0
2017-Sep-21 02:00N 28°09' W 015°24'0 0.0
2017-Sep-21 01:30N 28°09' W 015°24'0 0.0
2017-Sep-21 01:00N 28°09' W 015°24'0 0.0
2017-Sep-21 00:30N 28°09' W 015°24'0 0.0
2017-Sep-21 00:00N 28°09' W 015°24'0 0.0
2017-Sep-20 23:30N 28°09' W 015°24'0 0.0
2017-Sep-20 23:00N 28°09' W 015°24'0 0.0
2017-Sep-20 22:30N 28°09' W 015°24'0 0.0
2017-Sep-20 22:00N 28°09' W 015°24'0 0.0
2017-Sep-20 21:30N 28°09' W 015°24'0 0.0
2017-Sep-20 21:00N 28°09' W 015°24'0 0.0
2017-Sep-20 20:30N 28°09' W 015°24'0 0.0
2017-Sep-20 20:00N 28°09' W 015°24'0 0.0
2017-Sep-20 19:30N 28°09' W 015°24'0 0.0
2017-Sep-20 19:00N 28°09' W 015°24'0 0.0
2017-Sep-20 18:30N 28°09' W 015°24'0 0.0
2017-Sep-20 18:00N 28°09' W 015°24'0 0.0
2017-Sep-20 17:30N 28°09' W 015°24'0 0.0
2017-Sep-20 17:00N 28°09' W 015°24'0 0.0
2017-Sep-20 16:30N 28°09' W 015°24'0 0.0
2017-Sep-20 16:00N 28°09' W 015°24'0 0.0
2017-Sep-20 15:30N 28°09' W 015°24'0 0.0
2017-Sep-20 15:00N 28°09' W 015°24'0 0.0
2017-Sep-20 14:00N 28°09' W 015°24'0 0.0
2017-Sep-20 13:30N 28°09' W 015°24'0 0.0
2017-Sep-20 13:00N 28°09' W 015°24'0 0.0
2017-Sep-20 12:30N 28°09' W 015°24'0 0.0
2017-Sep-20 12:00N 28°09' W 015°24'0 0.0
2017-Sep-20 11:30N 28°09' W 015°24'0 0.0
2017-Sep-20 11:00N 28°09' W 015°24'0 0.0
2017-Sep-20 10:30N 28°09' W 015°24'0 0.0
2017-Sep-20 10:00N 28°09' W 015°24'0 0.0
2017-Sep-20 09:30N 28°09' W 015°24'0 0.0
2017-Sep-20 09:00N 28°09' W 015°24'0 0.0
2017-Sep-20 08:30N 28°09' W 015°24'0 0.0
2017-Sep-20 08:00N 28°09' W 015°24'0 0.0
2017-Sep-20 07:30N 28°09' W 015°24'0 0.0
2017-Sep-20 07:00N 28°09' W 015°24'0 0.0
2017-Sep-20 06:30N 28°09' W 015°24'0 0.0
2017-Sep-20 06:00N 28°09' W 015°24'0 0.0
2017-Sep-20 05:30N 28°09' W 015°24'0 0.0
2017-Sep-20 05:00N 28°09' W 015°24'0 0.0
2017-Sep-20 04:30N 28°09' W 015°24'0 0.0
2017-Sep-20 04:00N 28°09' W 015°24'0 0.0
2017-Sep-20 03:30N 28°09' W 015°24'0 0.0
2017-Sep-20 03:00N 28°09' W 015°24'0 0.0
2017-Sep-20 02:30N 28°09' W 015°24'0 0.0
2017-Sep-20 02:00N 28°09' W 015°24'0 0.0
2017-Sep-20 01:30N 28°09' W 015°24'0 0.0
2017-Sep-20 01:00N 28°09' W 015°24'0 0.0
2017-Sep-20 00:30N 28°09' W 015°24'0 0.0
2017-Sep-20 00:00N 28°09' W 015°24'0 0.0
2017-Sep-19 23:30N 28°09' W 015°24'0 0.0
2017-Sep-19 23:00N 28°09' W 015°24'0 0.0
2017-Sep-19 22:30N 28°09' W 015°24'0 0.0
2017-Sep-19 22:00N 28°09' W 015°24'0 0.0
2017-Sep-19 21:30N 28°09' W 015°24'0 0.0
2017-Sep-19 21:00N 28°09' W 015°24'0 0.0
2017-Sep-19 20:30N 28°09' W 015°24'0 0.0
2017-Sep-19 20:00N 28°09' W 015°24'0 0.0
2017-Sep-19 19:30N 28°09' W 015°24'0 0.0
2017-Sep-19 19:00N 28°09' W 015°24'0 0.0
2017-Sep-19 18:30N 28°09' W 015°24'0 0.0
2017-Sep-19 18:00N 28°09' W 015°24'0 0.0
2017-Sep-19 17:30N 28°09' W 015°24'0 0.0
2017-Sep-19 17:00N 28°09' W 015°24'0 0.0
2017-Sep-19 16:30N 28°09' W 015°24'0 0.0
2017-Sep-19 16:00N 28°09' W 015°24'0 0.0
2017-Sep-19 15:30N 28°09' W 015°24'0 0.0
2017-Sep-19 15:00N 28°09' W 015°24'0 0.0
2017-Sep-19 14:30N 28°09' W 015°24'0 0.0
2017-Sep-19 14:00N 28°09' W 015°24'0 0.0
2017-Sep-19 13:30N 28°09' W 015°24'0 0.0
2017-Sep-19 13:00N 28°09' W 015°24'0 0.0
2017-Sep-19 12:30N 28°09' W 015°24'0 0.0
2017-Sep-19 12:00N 28°09' W 015°24'0 0.0
2017-Sep-19 11:30N 28°09' W 015°24'0 0.0
2017-Sep-19 11:00N 28°09' W 015°24'0 0.0
2017-Sep-19 10:30N 28°09' W 015°24'0 0.0
2017-Sep-19 10:00N 28°09' W 015°24'0 0.0
2017-Sep-19 09:30N 28°09' W 015°24'0 0.0
2017-Sep-19 09:00N 28°09' W 015°24'0 0.0
2017-Sep-19 08:30N 28°09' W 015°24'0 0.0
2017-Sep-19 08:00N 28°09' W 015°24'0 0.0
2017-Sep-19 07:30N 28°09' W 015°24'0 0.0
2017-Sep-19 07:00N 28°09' W 015°24'0 0.0
2017-Sep-19 06:30N 28°09' W 015°24'0 0.0
2017-Sep-19 06:00N 28°09' W 015°24'0 0.0
2017-Sep-19 05:30N 28°09' W 015°24'0 0.0
2017-Sep-19 05:00N 28°09' W 015°24'0 0.0
2017-Sep-19 04:30N 28°09' W 015°24'0 0.0
2017-Sep-19 04:00N 28°09' W 015°24'0 0.0
2017-Sep-19 03:30N 28°09' W 015°24'0 0.0
2017-Sep-19 03:00N 28°09' W 015°24'0 0.0
2017-Sep-19 02:30N 28°09' W 015°24'0 0.0
2017-Sep-19 02:00N 28°09' W 015°24'0 0.0
2017-Sep-19 01:30N 28°09' W 015°24'0 0.0
2017-Sep-19 01:00N 28°09' W 015°24'0 0.0
2017-Sep-19 00:30N 28°09' W 015°24'0 0.0
2017-Sep-19 00:00N 28°09' W 015°24'0 0.0
2017-Sep-18 23:30N 28°09' W 015°24'0 0.0
2017-Sep-18 23:00N 28°09' W 015°24'0 0.0
2017-Sep-18 22:30N 28°09' W 015°24'0 0.0
2017-Sep-18 22:00N 28°09' W 015°24'0 0.0
2017-Sep-18 21:30N 28°09' W 015°24'0 0.0
2017-Sep-18 21:00N 28°09' W 015°24'0 0.0
2017-Sep-18 20:30N 28°09' W 015°24'0 0.0
2017-Sep-18 20:00N 28°09' W 015°24'0 0.0
2017-Sep-18 19:30N 28°09' W 015°24'0 0.0
2017-Sep-18 19:00N 28°09' W 015°24'0 0.0
2017-Sep-18 18:30N 28°09' W 015°24'0 0.0
2017-Sep-18 18:00N 28°09' W 015°24'0 0.0
2017-Sep-18 17:30N 28°09' W 015°24'0 0.0
2017-Sep-18 17:00N 28°09' W 015°24'0 0.0
2017-Sep-18 16:30N 28°09' W 015°24'0 0.0
2017-Sep-18 16:00N 28°09' W 015°24'0 0.0
2017-Sep-18 15:30N 28°09' W 015°24'0 0.0
2017-Sep-18 15:00N 28°09' W 015°24'0 0.0
2017-Sep-18 14:30N 28°09' W 015°24'0 0.0
2017-Sep-18 14:00N 28°09' W 015°24'0 0.0
2017-Sep-18 13:30N 28°09' W 015°24'0 0.0
2017-Sep-18 13:00N 28°09' W 015°24'0 0.0
2017-Sep-18 12:30N 28°09' W 015°24'0 0.0
2017-Sep-18 12:00N 28°09' W 015°24'0 0.0
2017-Sep-18 11:30N 28°09' W 015°24'0 0.0
2017-Sep-18 11:00N 28°09' W 015°24'0 0.0
2017-Sep-18 10:30N 28°09' W 015°24'0 0.0
2017-Sep-18 10:00N 28°09' W 015°24'0 0.0
2017-Sep-18 09:30N 28°09' W 015°24'0 0.0
2017-Sep-18 09:00N 28°09' W 015°24'0 0.0
2017-Sep-18 08:30N 28°09' W 015°24'0 0.0
2017-Sep-18 08:00N 28°09' W 015°24'0 0.0
2017-Sep-18 07:30N 28°09' W 015°24'0 0.0
2017-Sep-18 07:00N 28°09' W 015°24'0 0.0
2017-Sep-18 06:30N 28°09' W 015°24'0 0.0
2017-Sep-18 06:00N 28°09' W 015°24'0 0.0
2017-Sep-18 05:30N 28°09' W 015°24'0 0.0
2017-Sep-18 05:00N 28°09' W 015°24'0 0.0
2017-Sep-18 04:30N 28°09' W 015°24'0 0.0
2017-Sep-18 04:00N 28°09' W 015°24'0 0.0
2017-Sep-18 03:30N 28°09' W 015°24'0 0.0
2017-Sep-18 03:00N 28°09' W 015°24'0 0.0
2017-Sep-18 02:30N 28°09' W 015°24'0 0.0
2017-Sep-18 02:00N 28°09' W 015°24'0 0.0
2017-Sep-18 01:30N 28°09' W 015°24'0 0.0
2017-Sep-18 01:00N 28°09' W 015°24'0 0.0
2017-Sep-18 00:30N 28°09' W 015°24'0 0.0
2017-Sep-18 00:00N 28°09' W 015°24'0 0.0
2017-Sep-17 23:30N 28°09' W 015°24'0 0.0
2017-Sep-17 23:00N 28°09' W 015°24'0 0.0
2017-Sep-17 22:30N 28°09' W 015°24'0 0.0
2017-Sep-17 22:00N 28°09' W 015°24'0 0.0
2017-Sep-17 21:30N 28°09' W 015°24'0 0.0
2017-Sep-17 21:00N 28°09' W 015°24'0 0.0
2017-Sep-17 20:30N 28°09' W 015°24'0 0.0
2017-Sep-17 20:00N 28°09' W 015°24'0 0.0
2017-Sep-17 19:30N 28°09' W 015°24'0 0.0
2017-Sep-17 19:00N 28°09' W 015°24'0 0.0
2017-Sep-17 18:30N 28°09' W 015°24'0 0.0
2017-Sep-17 18:00N 28°09' W 015°24'0 0.0
2017-Sep-17 17:30N 28°09' W 015°24'0 0.0
2017-Sep-17 17:00N 28°09' W 015°24'0 0.0
2017-Sep-17 16:30N 28°09' W 015°24'0 0.0
2017-Sep-17 16:00N 28°09' W 015°24'0 0.0
2017-Sep-17 15:30N 28°09' W 015°24'0 0.0
2017-Sep-17 15:00N 28°09' W 015°24'0 0.0
2017-Sep-17 14:30N 28°09' W 015°24'0 0.0
2017-Sep-17 14:00N 28°09' W 015°24'0 0.0
2017-Sep-17 13:30N 28°09' W 015°24'0 0.0
2017-Sep-17 13:00N 28°09' W 015°24'0 0.0
2017-Sep-17 12:30N 28°09' W 015°24'0 0.0
2017-Sep-17 12:00N 28°09' W 015°24'0 0.0
2017-Sep-17 11:30N 28°09' W 015°24'0 0.0
2017-Sep-17 11:00N 28°09' W 015°24'0 0.0
2017-Sep-17 10:30N 28°09' W 015°24'0 0.0
2017-Sep-17 10:00N 28°09' W 015°24'1 2.2
2017-Sep-17 09:30N 28°08' W 015°25'3 5.6
2017-Sep-17 09:00N 28°06' W 015°22'4 8.5
2017-Sep-17 08:30N 28°05' W 015°18'2 4.6
2017-Sep-17 08:00N 28°04' W 015°15'0 1.0
2017-Sep-17 07:30N 28°04' W 015°15'0 0.9
2017-Sep-17 07:00N 28°05' W 015°15'0 0.7
2017-Sep-17 06:30N 28°05' W 015°15'2 3.8
2017-Sep-17 06:00N 28°03' W 015°15'2 4.7
2017-Sep-17 05:30N 28°00' W 015°15'2 4.7
2017-Sep-17 05:00N 27°58' W 015°15'2 4.6
2017-Sep-17 04:30N 27°56' W 015°16'2 4.5
2017-Sep-17 04:00N 27°53' W 015°16'3 5.6
2017-Sep-17 03:30N 27°51' W 015°16'3 5.6
2017-Sep-17 03:00N 27°48' W 015°15'3 5.4
2017-Sep-17 02:30N 27°45' W 015°15'3 5.4
2017-Sep-17 02:00N 27°42' W 015°15'3 5.0
2017-Sep-17 01:30N 27°40' W 015°15'9 6.1
2017-Sep-16 23:58N 27°32' W 015°21'4 7.1
2017-Sep-16 23:28N 27°30' W 015°24'  

Dump ship's entire track history